sensor_id;sensor_type;location;lat;lon;timestamp;pressure;altitude;pressure_sealevel;temperature;humidity
73338;BME280;61575;49.908;35.556;2023-04-08T00:02:52;99532.91;;;9.58;76.57
73338;BME280;61575;49.908;35.556;2023-04-08T00:05:54;99535.59;;;9.58;76.36
73338;BME280;61575;49.908;35.556;2023-04-08T00:08:56;99532.25;;;9.56;76.24
73338;BME280;61575;49.908;35.556;2023-04-08T00:11:58;99526.19;;;9.54;75.96
73338;BME280;61575;49.908;35.556;2023-04-08T00:15:00;99518.47;;;9.51;76.01
73338;BME280;61575;49.908;35.556;2023-04-08T00:18:02;99530.53;;;9.47;76.11
73338;BME280;61575;49.908;35.556;2023-04-08T00:21:04;99526.19;;;9.46;76.10
73338;BME280;61575;49.908;35.556;2023-04-08T00:24:06;99529.19;;;9.43;76.17
73338;BME280;61575;49.908;35.556;2023-04-08T00:27:08;99535.53;;;9.42;76.07
73338;BME280;61575;49.908;35.556;2023-04-08T00:30:10;99524.47;;;9.37;76.06
73338;BME280;61575;49.908;35.556;2023-04-08T00:33:12;99526.47;;;9.35;76.17
73338;BME280;61575;49.908;35.556;2023-04-08T00:36:14;99527.78;;;9.31;76.22
73338;BME280;61575;49.908;35.556;2023-04-08T00:39:16;99525.47;;;9.28;76.50
73338;BME280;61575;49.908;35.556;2023-04-08T00:42:19;99520.59;;;9.23;76.46
73338;BME280;61575;49.908;35.556;2023-04-08T00:45:22;99517.06;;;9.23;76.55
73338;BME280;61575;49.908;35.556;2023-04-08T00:48:24;99527.28;;;9.19;76.47
73338;BME280;61575;49.908;35.556;2023-04-08T00:51:28;99528.44;;;9.17;76.34
73338;BME280;61575;49.908;35.556;2023-04-08T00:54:31;99524.91;;;9.16;76.23
73338;BME280;61575;49.908;35.556;2023-04-08T00:57:34;99530.97;;;9.18;76.03
73338;BME280;61575;49.908;35.556;2023-04-08T01:00:39;99525.91;;;9.15;75.97
73338;BME280;61575;49.908;35.556;2023-04-08T01:04:11;99527.28;;;9.19;75.83
73338;BME280;61575;49.908;35.556;2023-04-08T01:07:26;99531.78;;;9.19;75.83
73338;BME280;61575;49.908;35.556;2023-04-08T01:10:30;99532.63;;;9.19;75.49
73338;BME280;61575;49.908;35.556;2023-04-08T01:13:36;99530.13;;;9.18;75.65
73338;BME280;61575;49.908;35.556;2023-04-08T01:16:41;99542.50;;;9.19;75.64
73338;BME280;61575;49.908;35.556;2023-04-08T01:19:45;99542.84;;;9.16;75.79
73338;BME280;61575;49.908;35.556;2023-04-08T01:26:11;99547.84;;;9.11;76.10
73338;BME280;61575;49.908;35.556;2023-04-08T01:29:15;99547.44;;;9.06;76.45
73338;BME280;61575;49.908;35.556;2023-04-08T01:32:18;99550.44;;;9.03;76.69
73338;BME280;61575;49.908;35.556;2023-04-08T01:35:21;99547.75;;;9.03;76.58
73338;BME280;61575;49.908;35.556;2023-04-08T01:38:24;99553.44;;;9.00;76.78
73338;BME280;61575;49.908;35.556;2023-04-08T01:41:28;99557.94;;;8.99;76.70
73338;BME280;61575;49.908;35.556;2023-04-08T01:44:32;99563.47;;;8.97;76.58
73338;BME280;61575;49.908;35.556;2023-04-08T01:47:34;99557.44;;;8.95;76.75
73338;BME280;61575;49.908;35.556;2023-04-08T01:50:40;99563.63;;;8.96;76.65
73338;BME280;61575;49.908;35.556;2023-04-08T01:53:42;99567.31;;;8.95;76.99
73338;BME280;61575;49.908;35.556;2023-04-08T01:56:45;99570.97;;;8.94;76.78
73338;BME280;61575;49.908;35.556;2023-04-08T01:59:49;99562.41;;;8.90;76.66
73338;BME280;61575;49.908;35.556;2023-04-08T02:02:53;99566.25;;;8.88;76.73
73338;BME280;61575;49.908;35.556;2023-04-08T02:05:56;99567.94;;;8.89;76.68
73338;BME280;61575;49.908;35.556;2023-04-08T02:08:59;99563.88;;;8.85;76.62
73338;BME280;61575;49.908;35.556;2023-04-08T02:12:02;99564.03;;;8.83;76.57
73338;BME280;61575;49.908;35.556;2023-04-08T02:15:04;99562.69;;;8.79;76.61
73338;BME280;61575;49.908;35.556;2023-04-08T02:18:15;99554.81;;;8.78;76.23
73338;BME280;61575;49.908;35.556;2023-04-08T02:21:21;99560.47;;;8.75;76.02
73338;BME280;61575;49.908;35.556;2023-04-08T02:24:28;99566.16;;;8.72;75.83
73338;BME280;61575;49.908;35.556;2023-04-08T02:27:33;99556.59;;;8.69;75.47
73338;BME280;61575;49.908;35.556;2023-04-08T02:30:36;99559.75;;;8.64;75.34
73338;BME280;61575;49.908;35.556;2023-04-08T02:33:42;99562.88;;;8.60;75.01
73338;BME280;61575;49.908;35.556;2023-04-08T02:36:44;99564.72;;;8.59;74.88
73338;BME280;61575;49.908;35.556;2023-04-08T02:39:48;99564.19;;;8.56;74.96
73338;BME280;61575;49.908;35.556;2023-04-08T02:42:49;99561.13;;;8.51;74.92
73338;BME280;61575;49.908;35.556;2023-04-08T02:45:52;99572.16;;;8.48;74.97
73338;BME280;61575;49.908;35.556;2023-04-08T02:48:54;99575.00;;;8.46;74.77
73338;BME280;61575;49.908;35.556;2023-04-08T02:51:56;99562.75;;;8.44;74.88
73338;BME280;61575;49.908;35.556;2023-04-08T02:54:58;99573.09;;;8.39;74.94
73338;BME280;61575;49.908;35.556;2023-04-08T02:57:59;99571.03;;;8.32;74.87
73338;BME280;61575;49.908;35.556;2023-04-08T03:01:02;99573.00;;;8.30;74.81
73338;BME280;61575;49.908;35.556;2023-04-08T03:04:04;99582.03;;;8.29;74.78
73338;BME280;61575;49.908;35.556;2023-04-08T03:07:06;99584.03;;;8.27;74.88
73338;BME280;61575;49.908;35.556;2023-04-08T03:10:09;99582.66;;;8.23;74.93
73338;BME280;61575;49.908;35.556;2023-04-08T03:13:11;99589.16;;;8.21;74.95
73338;BME280;61575;49.908;35.556;2023-04-08T03:16:13;99587.47;;;8.20;74.87
73338;BME280;61575;49.908;35.556;2023-04-08T03:19:15;99583.25;;;8.17;74.92
73338;BME280;61575;49.908;35.556;2023-04-08T03:22:18;99582.72;;;8.14;74.95
73338;BME280;61575;49.908;35.556;2023-04-08T03:25:20;99590.59;;;8.15;74.94
73338;BME280;61575;49.908;35.556;2023-04-08T03:28:21;99583.56;;;8.14;75.01
73338;BME280;61575;49.908;35.556;2023-04-08T03:31:24;99590.06;;;8.12;75.00
73338;BME280;61575;49.908;35.556;2023-04-08T03:34:26;99592.91;;;8.10;75.00
73338;BME280;61575;49.908;35.556;2023-04-08T03:37:28;99593.72;;;8.11;74.97
73338;BME280;61575;49.908;35.556;2023-04-08T03:40:30;99598.25;;;8.10;75.06
73338;BME280;61575;49.908;35.556;2023-04-08T03:43:32;99598.09;;;8.12;74.95
73338;BME280;61575;49.908;35.556;2023-04-08T03:46:36;99608.34;;;8.16;74.82
73338;BME280;61575;49.908;35.556;2023-04-08T03:49:38;99611.41;;;8.21;74.69
73338;BME280;61575;49.908;35.556;2023-04-08T03:52:40;99620.94;;;8.24;74.62
73338;BME280;61575;49.908;35.556;2023-04-08T03:55:42;99617.66;;;8.30;74.46
73338;BME280;61575;49.908;35.556;2023-04-08T03:58:44;99613.38;;;8.37;74.13
73338;BME280;61575;49.908;35.556;2023-04-08T04:01:46;99618.97;;;8.44;74.07
73338;BME280;61575;49.908;35.556;2023-04-08T04:04:48;99614.66;;;8.51;73.74
73338;BME280;61575;49.908;35.556;2023-04-08T04:07:50;99619.94;;;8.60;73.46
73338;BME280;61575;49.908;35.556;2023-04-08T04:10:52;99623.91;;;8.74;73.18
73338;BME280;61575;49.908;35.556;2023-04-08T04:13:54;99627.63;;;8.81;72.71
73338;BME280;61575;49.908;35.556;2023-04-08T04:16:56;99622.03;;;8.92;72.33
73338;BME280;61575;49.908;35.556;2023-04-08T04:19:57;99635.31;;;9.02;71.88
73338;BME280;61575;49.908;35.556;2023-04-08T04:22:59;99628.88;;;9.13;71.52
73338;BME280;61575;49.908;35.556;2023-04-08T04:26:06;99629.94;;;9.20;71.05
73338;BME280;61575;49.908;35.556;2023-04-08T04:29:08;99634.16;;;9.31;70.87
73338;BME280;61575;49.908;35.556;2023-04-08T04:32:10;99637.25;;;9.44;70.61
73338;BME280;61575;49.908;35.556;2023-04-08T04:35:12;99638.63;;;9.56;70.23
73338;BME280;61575;49.908;35.556;2023-04-08T04:38:14;99645.06;;;9.71;70.02
73338;BME280;61575;49.908;35.556;2023-04-08T04:41:16;99649.97;;;9.76;69.56
73338;BME280;61575;49.908;35.556;2023-04-08T04:44:18;99647.34;;;9.92;69.42
73338;BME280;61575;49.908;35.556;2023-04-08T04:47:20;99648.56;;;10.06;69.14
73338;BME280;61575;49.908;35.556;2023-04-08T04:50:22;99647.56;;;10.15;68.49
73338;BME280;61575;49.908;35.556;2023-04-08T04:53:24;99657.31;;;10.24;68.05
73338;BME280;61575;49.908;35.556;2023-04-08T04:56:26;99655.16;;;10.36;68.04
73338;BME280;61575;49.908;35.556;2023-04-08T04:59:28;99654.84;;;10.39;67.46
73338;BME280;61575;49.908;35.556;2023-04-08T05:02:30;99662.25;;;10.53;67.51
73338;BME280;61575;49.908;35.556;2023-04-08T05:05:33;99655.19;;;10.52;67.05
73338;BME280;61575;49.908;35.556;2023-04-08T05:08:34;99654.34;;;10.59;66.63
73338;BME280;61575;49.908;35.556;2023-04-08T05:11:36;99662.59;;;10.66;67.07
73338;BME280;61575;49.908;35.556;2023-04-08T05:14:38;99664.31;;;10.75;66.84
73338;BME280;61575;49.908;35.556;2023-04-08T05:17:41;99668.84;;;10.83;65.92
73338;BME280;61575;49.908;35.556;2023-04-08T05:20:44;99666.66;;;10.95;66.16
73338;BME280;61575;49.908;35.556;2023-04-08T05:23:46;99661.59;;;11.00;65.53
73338;BME280;61575;49.908;35.556;2023-04-08T05:26:48;99661.91;;;11.21;65.60
73338;BME280;61575;49.908;35.556;2023-04-08T05:29:53;99667.13;;;11.22;64.48
73338;BME280;61575;49.908;35.556;2023-04-08T05:32:56;99670.78;;;11.38;64.52
73338;BME280;61575;49.908;35.556;2023-04-08T05:36:01;99672.09;;;11.58;64.92
73338;BME280;61575;49.908;35.556;2023-04-08T05:39:03;99673.06;;;11.65;63.70
73338;BME280;61575;49.908;35.556;2023-04-08T05:42:05;99681.63;;;11.77;63.26
73338;BME280;61575;49.908;35.556;2023-04-08T05:45:08;99677.53;;;11.89;62.70
73338;BME280;61575;49.908;35.556;2023-04-08T05:48:10;99690.59;;;12.08;62.91
73338;BME280;61575;49.908;35.556;2023-04-08T05:51:13;99680.63;;;12.17;62.45
73338;BME280;61575;49.908;35.556;2023-04-08T05:54:15;99688.19;;;12.22;62.54
73338;BME280;61575;49.908;35.556;2023-04-08T05:57:17;99686.06;;;12.40;62.68
73338;BME280;61575;49.908;35.556;2023-04-08T06:00:19;99687.50;;;12.50;62.26
73338;BME280;61575;49.908;35.556;2023-04-08T06:03:22;99685.00;;;12.72;62.33
73338;BME280;61575;49.908;35.556;2023-04-08T06:06:24;99686.63;;;12.81;61.64
73338;BME280;61575;49.908;35.556;2023-04-08T06:09:26;99696.78;;;12.94;60.43
73338;BME280;61575;49.908;35.556;2023-04-08T06:12:28;99695.53;;;13.04;60.70
73338;BME280;61575;49.908;35.556;2023-04-08T06:15:30;99695.00;;;13.09;60.13
73338;BME280;61575;49.908;35.556;2023-04-08T06:18:33;99694.09;;;13.31;59.99
73338;BME280;61575;49.908;35.556;2023-04-08T06:21:35;99702.34;;;13.38;59.17
73338;BME280;61575;49.908;35.556;2023-04-08T06:24:37;99706.53;;;13.40;59.91
73338;BME280;61575;49.908;35.556;2023-04-08T06:27:38;99702.81;;;13.56;60.04
73338;BME280;61575;49.908;35.556;2023-04-08T06:30:41;99709.06;;;13.71;59.40
73338;BME280;61575;49.908;35.556;2023-04-08T06:33:43;99712.81;;;13.85;58.25
73338;BME280;61575;49.908;35.556;2023-04-08T06:36:45;99709.06;;;13.86;58.35
73338;BME280;61575;49.908;35.556;2023-04-08T06:39:46;99720.53;;;14.03;58.17
73338;BME280;61575;49.908;35.556;2023-04-08T06:42:48;99717.16;;;14.16;58.04
73338;BME280;61575;49.908;35.556;2023-04-08T06:46:13;99725.78;;;14.40;57.56
73338;BME280;61575;49.908;35.556;2023-04-08T06:49:15;99727.16;;;14.51;57.13
73338;BME280;61575;49.908;35.556;2023-04-08T06:52:17;99724.19;;;14.46;56.54
73338;BME280;61575;49.908;35.556;2023-04-08T06:55:19;99722.09;;;14.63;56.99
73338;BME280;61575;49.908;35.556;2023-04-08T06:58:21;99725.69;;;14.70;56.62
73338;BME280;61575;49.908;35.556;2023-04-08T07:01:23;99722.31;;;15.04;56.62
73338;BME280;61575;49.908;35.556;2023-04-08T07:04:26;99722.44;;;14.96;54.79
73338;BME280;61575;49.908;35.556;2023-04-08T07:07:28;99722.88;;;14.99;55.68
73338;BME280;61575;49.908;35.556;2023-04-08T07:10:30;99723.16;;;15.04;56.08
73338;BME280;61575;49.908;35.556;2023-04-08T07:13:32;99730.56;;;14.96;54.42
73338;BME280;61575;49.908;35.556;2023-04-08T07:16:34;99734.94;;;14.97;55.95
73338;BME280;61575;49.908;35.556;2023-04-08T07:19:36;99731.06;;;14.85;55.37
73338;BME280;61575;49.908;35.556;2023-04-08T07:22:39;99732.03;;;14.98;54.40
73338;BME280;61575;49.908;35.556;2023-04-08T07:25:41;99735.69;;;15.12;55.44
73338;BME280;61575;49.908;35.556;2023-04-08T07:28:43;99733.63;;;15.35;53.95
73338;BME280;61575;49.908;35.556;2023-04-08T07:31:45;99738.88;;;15.43;53.76
73338;BME280;61575;49.908;35.556;2023-04-08T07:34:47;99735.53;;;15.63;53.36
73338;BME280;61575;49.908;35.556;2023-04-08T07:37:49;99732.28;;;15.53;53.31
73338;BME280;61575;49.908;35.556;2023-04-08T07:40:54;99735.81;;;15.74;53.71
73338;BME280;61575;49.908;35.556;2023-04-08T07:43:56;99729.28;;;15.97;53.56
73338;BME280;61575;49.908;35.556;2023-04-08T07:46:58;99729.66;;;15.87;53.17
73338;BME280;61575;49.908;35.556;2023-04-08T07:50:00;99725.75;;;15.96;53.65
73338;BME280;61575;49.908;35.556;2023-04-08T07:53:02;99726.28;;;16.20;53.32
73338;BME280;61575;49.908;35.556;2023-04-08T07:56:14;99727.38;;;16.32;52.15
73338;BME280;61575;49.908;35.556;2023-04-08T07:59:19;99726.44;;;16.53;52.28
73338;BME280;61575;49.908;35.556;2023-04-08T08:02:21;99720.09;;;16.87;51.95
73338;BME280;61575;49.908;35.556;2023-04-08T08:05:23;99724.25;;;16.83;51.39
73338;BME280;61575;49.908;35.556;2023-04-08T08:08:25;99721.53;;;16.83;51.78
73338;BME280;61575;49.908;35.556;2023-04-08T08:11:27;99728.97;;;16.61;51.43
73338;BME280;61575;49.908;35.556;2023-04-08T08:14:29;99724.03;;;16.84;52.35
73338;BME280;61575;49.908;35.556;2023-04-08T08:17:31;99723.03;;;17.05;51.59
73338;BME280;61575;49.908;35.556;2023-04-08T08:20:34;99724.28;;;17.09;51.51
73338;BME280;61575;49.908;35.556;2023-04-08T08:23:37;99728.06;;;17.34;50.28
73338;BME280;61575;49.908;35.556;2023-04-08T08:26:39;99728.47;;;17.45;50.13
73338;BME280;61575;49.908;35.556;2023-04-08T08:29:41;99732.47;;;17.62;50.48
73338;BME280;61575;49.908;35.556;2023-04-08T08:32:43;99740.41;;;17.77;49.30
73338;BME280;61575;49.908;35.556;2023-04-08T08:35:45;99742.91;;;17.65;49.37
73338;BME280;61575;49.908;35.556;2023-04-08T08:38:47;99742.50;;;17.75;48.73
73338;BME280;61575;49.908;35.556;2023-04-08T08:41:49;99737.66;;;17.90;48.50
73338;BME280;61575;49.908;35.556;2023-04-08T08:44:51;99743.72;;;17.98;48.35
73338;BME280;61575;49.908;35.556;2023-04-08T08:47:53;99740.38;;;17.90;47.40
73338;BME280;61575;49.908;35.556;2023-04-08T08:50:56;99743.25;;;18.08;47.51
73338;BME280;61575;49.908;35.556;2023-04-08T08:54:02;99751.22;;;18.03;47.93
73338;BME280;61575;49.908;35.556;2023-04-08T08:57:15;99753.56;;;17.73;46.51
73338;BME280;61575;49.908;35.556;2023-04-08T09:00:18;99750.84;;;17.80;47.98
73338;BME280;61575;49.908;35.556;2023-04-08T09:03:24;99756.06;;;17.48;46.16
73338;BME280;61575;49.908;35.556;2023-04-08T09:06:27;99753.31;;;17.09;47.01
73338;BME280;61575;49.908;35.556;2023-04-08T09:09:47;99761.69;;;17.33;48.97
73338;BME280;61575;49.908;35.556;2023-04-08T09:12:53;99757.34;;;17.59;49.04
73338;BME280;61575;49.908;35.556;2023-04-08T09:16:08;99764.00;;;17.76;47.21
73338;BME280;61575;49.908;35.556;2023-04-08T09:19:12;99760.06;;;17.65;47.21
73338;BME280;61575;49.908;35.556;2023-04-08T09:22:14;99758.38;;;17.78;46.39
73338;BME280;61575;49.908;35.556;2023-04-08T09:25:27;99766.91;;;17.94;48.13
73338;BME280;61575;49.908;35.556;2023-04-08T09:28:29;99767.13;;;17.99;45.90
73338;BME280;61575;49.908;35.556;2023-04-08T09:31:34;99759.84;;;17.74;45.59
73338;BME280;61575;49.908;35.556;2023-04-08T09:34:38;99772.78;;;17.78;46.69
73338;BME280;61575;49.908;35.556;2023-04-08T09:37:41;99769.44;;;17.89;45.17
73338;BME280;61575;49.908;35.556;2023-04-08T09:40:43;99775.91;;;17.88;45.34
73338;BME280;61575;49.908;35.556;2023-04-08T09:43:52;99765.25;;;17.93;45.64
73338;BME280;61575;49.908;35.556;2023-04-08T09:50:09;99765.16;;;18.33;46.68
73338;BME280;61575;49.908;35.556;2023-04-08T09:53:34;99769.94;;;18.44;45.26
73338;BME280;61575;49.908;35.556;2023-04-08T09:56:43;99772.88;;;18.43;45.55
73338;BME280;61575;49.908;35.556;2023-04-08T09:59:51;99762.19;;;18.48;44.68
73338;BME280;61575;49.908;35.556;2023-04-08T10:06:21;99772.16;;;18.67;45.93
73338;BME280;61575;49.908;35.556;2023-04-08T10:09:24;99773.47;;;18.51;45.36
73338;BME280;61575;49.908;35.556;2023-04-08T10:12:27;99771.81;;;18.50;44.04
73338;BME280;61575;49.908;35.556;2023-04-08T10:15:31;99778.53;;;18.28;44.23
73338;BME280;61575;49.908;35.556;2023-04-08T10:18:33;99774.38;;;18.25;43.95
73338;BME280;61575;49.908;35.556;2023-04-08T10:21:40;99772.69;;;18.24;43.56
73338;BME280;61575;49.908;35.556;2023-04-08T10:31:20;99771.94;;;17.84;43.49
73338;BME280;61575;49.908;35.556;2023-04-08T10:34:24;99776.13;;;17.93;43.57
73338;BME280;61575;49.908;35.556;2023-04-08T10:37:27;99782.56;;;18.12;44.22
73338;BME280;61575;49.908;35.556;2023-04-08T10:40:34;99777.34;;;18.04;43.65
73338;BME280;61575;49.908;35.556;2023-04-08T10:43:40;99775.66;;;18.10;43.85
73338;BME280;61575;49.908;35.556;2023-04-08T10:46:42;99771.91;;;18.11;42.84
73338;BME280;61575;49.908;35.556;2023-04-08T10:49:44;99773.16;;;18.02;42.68
73338;BME280;61575;49.908;35.556;2023-04-08T10:52:50;99776.31;;;17.92;41.98
73338;BME280;61575;49.908;35.556;2023-04-08T10:56:09;99770.66;;;18.07;42.73
73338;BME280;61575;49.908;35.556;2023-04-08T10:59:15;99761.63;;;18.19;42.11
73338;BME280;61575;49.908;35.556;2023-04-08T11:02:17;99761.63;;;18.26;42.53
73338;BME280;61575;49.908;35.556;2023-04-08T11:05:21;99765.97;;;18.40;42.28
73338;BME280;61575;49.908;35.556;2023-04-08T11:08:30;99766.56;;;18.55;41.76
73338;BME280;61575;49.908;35.556;2023-04-08T11:11:33;99762.97;;;18.61;41.69
73338;BME280;61575;49.908;35.556;2023-04-08T11:14:35;99759.69;;;18.46;41.64
73338;BME280;61575;49.908;35.556;2023-04-08T11:17:38;99766.19;;;18.45;42.66
73338;BME280;61575;49.908;35.556;2023-04-08T11:20:42;99760.53;;;18.47;41.64
73338;BME280;61575;49.908;35.556;2023-04-08T11:23:48;99755.50;;;18.37;42.75
73338;BME280;61575;49.908;35.556;2023-04-08T11:26:51;99760.13;;;18.30;42.42
73338;BME280;61575;49.908;35.556;2023-04-08T11:29:54;99754.31;;;18.20;42.12
73338;BME280;61575;49.908;35.556;2023-04-08T11:32:57;99752.03;;;18.17;42.36
73338;BME280;61575;49.908;35.556;2023-04-08T11:36:00;99757.25;;;18.12;43.17
73338;BME280;61575;49.908;35.556;2023-04-08T11:39:08;99757.69;;;18.09;42.07
73338;BME280;61575;49.908;35.556;2023-04-08T11:42:28;99754.13;;;18.15;43.20
73338;BME280;61575;49.908;35.556;2023-04-08T11:45:37;99747.63;;;18.16;41.90
73338;BME280;61575;49.908;35.556;2023-04-08T11:48:39;99749.72;;;18.14;42.98
73338;BME280;61575;49.908;35.556;2023-04-08T11:51:58;99750.31;;;18.29;42.92
73338;BME280;61575;49.908;35.556;2023-04-08T11:55:00;99754.06;;;18.28;42.99
73338;BME280;61575;49.908;35.556;2023-04-08T11:58:03;99744.69;;;18.24;42.98
73338;BME280;61575;49.908;35.556;2023-04-08T12:01:06;99746.78;;;18.15;42.65
73338;BME280;61575;49.908;35.556;2023-04-08T12:04:09;99742.88;;;17.91;42.20
73338;BME280;61575;49.908;35.556;2023-04-08T12:07:12;99740.59;;;17.82;42.50
73338;BME280;61575;49.908;35.556;2023-04-08T12:10:17;99745.00;;;17.76;41.39
73338;BME280;61575;49.908;35.556;2023-04-08T12:13:19;99741.88;;;17.66;42.29
73338;BME280;61575;49.908;35.556;2023-04-08T12:16:21;99738.31;;;17.65;42.99
73338;BME280;61575;49.908;35.556;2023-04-08T12:19:23;99741.00;;;17.46;43.09
73338;BME280;61575;49.908;35.556;2023-04-08T12:22:25;99744.16;;;17.49;43.41
73338;BME280;61575;49.908;35.556;2023-04-08T12:25:27;99743.09;;;17.50;43.48
73338;BME280;61575;49.908;35.556;2023-04-08T12:28:29;99747.50;;;17.38;43.66
73338;BME280;61575;49.908;35.556;2023-04-08T12:31:32;99744.34;;;17.21;44.00
73338;BME280;61575;49.908;35.556;2023-04-08T12:34:34;99746.22;;;17.21;44.70
73338;BME280;61575;49.908;35.556;2023-04-08T12:37:35;99742.47;;;17.22;44.76
73338;BME280;61575;49.908;35.556;2023-04-08T12:40:37;99742.03;;;17.18;45.48
73338;BME280;61575;49.908;35.556;2023-04-08T12:43:39;99742.00;;;16.92;45.97
73338;BME280;61575;49.908;35.556;2023-04-08T12:46:43;99744.00;;;16.63;47.70
73338;BME280;61575;49.908;35.556;2023-04-08T12:49:45;99746.69;;;16.57;47.68
73338;BME280;61575;49.908;35.556;2023-04-08T12:52:50;99747.91;;;16.54;48.01
73338;BME280;61575;49.908;35.556;2023-04-08T12:55:52;99741.44;;;16.49;48.72
73338;BME280;61575;49.908;35.556;2023-04-08T12:58:58;99740.19;;;16.51;48.60
73338;BME280;61575;49.908;35.556;2023-04-08T13:02:00;99736.84;;;16.49;48.40
73338;BME280;61575;49.908;35.556;2023-04-08T13:05:02;99727.06;;;16.55;48.04
73338;BME280;61575;49.908;35.556;2023-04-08T13:08:04;99728.78;;;16.62;47.91
73338;BME280;61575;49.908;35.556;2023-04-08T13:11:07;99729.22;;;16.66;47.91
73338;BME280;61575;49.908;35.556;2023-04-08T13:14:09;99734.84;;;16.64;47.17
73338;BME280;61575;49.908;35.556;2023-04-08T13:17:11;99728.97;;;16.61;46.51
73338;BME280;61575;49.908;35.556;2023-04-08T13:20:13;99718.97;;;16.61;46.81
73338;BME280;61575;49.908;35.556;2023-04-08T13:23:15;99713.78;;;16.66;46.73
73338;BME280;61575;49.908;35.556;2023-04-08T13:26:18;99712.97;;;16.73;46.53
73338;BME280;61575;49.908;35.556;2023-04-08T13:29:20;99700.63;;;16.63;45.80
73338;BME280;61575;49.908;35.556;2023-04-08T13:32:22;99699.81;;;16.69;46.52
73338;BME280;61575;49.908;35.556;2023-04-08T13:35:24;99697.94;;;16.70;46.08
73338;BME280;61575;49.908;35.556;2023-04-08T13:38:26;99701.28;;;16.79;46.32
73338;BME280;61575;49.908;35.556;2023-04-08T13:41:28;99696.28;;;16.76;44.96
73338;BME280;61575;49.908;35.556;2023-04-08T13:44:30;99689.59;;;16.72;43.50
73338;BME280;61575;49.908;35.556;2023-04-08T13:47:33;99694.38;;;16.69;43.27
73338;BME280;61575;49.908;35.556;2023-04-08T13:50:38;99691.69;;;16.69;43.41
73338;BME280;61575;49.908;35.556;2023-04-08T13:53:40;99692.44;;;16.50;41.71
73338;BME280;61575;49.908;35.556;2023-04-08T13:56:42;99699.72;;;16.50;41.88
73338;BME280;61575;49.908;35.556;2023-04-08T13:59:44;99695.31;;;16.42;41.55
73338;BME280;61575;49.908;35.556;2023-04-08T14:02:46;99704.03;;;16.31;41.53
73338;BME280;61575;49.908;35.556;2023-04-08T14:05:48;99702.97;;;16.25;41.68
73338;BME280;61575;49.908;35.556;2023-04-08T14:08:51;99700.47;;;16.24;41.75
73338;BME280;61575;49.908;35.556;2023-04-08T14:11:54;99703.38;;;16.22;40.96
73338;BME280;61575;49.908;35.556;2023-04-08T14:14:56;99698.00;;;16.35;41.02
73338;BME280;61575;49.908;35.556;2023-04-08T14:17:58;99693.88;;;16.46;40.79
73338;BME280;61575;49.908;35.556;2023-04-08T14:21:01;99694.97;;;16.58;40.47
73338;BME280;61575;49.908;35.556;2023-04-08T14:24:04;99696.47;;;16.67;39.89
73338;BME280;61575;49.908;35.556;2023-04-08T14:27:06;99697.31;;;16.68;39.57
73338;BME280;61575;49.908;35.556;2023-04-08T14:30:08;99705.34;;;16.48;38.31
73338;BME280;61575;49.908;35.556;2023-04-08T14:33:10;99709.91;;;16.41;38.64
73338;BME280;61575;49.908;35.556;2023-04-08T14:36:12;99707.38;;;16.33;39.04
73338;BME280;61575;49.908;35.556;2023-04-08T14:39:14;99700.19;;;16.12;38.52
73338;BME280;61575;49.908;35.556;2023-04-08T14:42:16;99705.41;;;16.14;38.91
73338;BME280;61575;49.908;35.556;2023-04-08T14:45:18;99706.66;;;16.11;39.47
73338;BME280;61575;49.908;35.556;2023-04-08T14:48:21;99702.91;;;16.12;39.36
73338;BME280;61575;49.908;35.556;2023-04-08T14:51:25;99703.13;;;16.17;39.48
73338;BME280;61575;49.908;35.556;2023-04-08T14:54:27;99712.06;;;16.11;39.22
73338;BME280;61575;49.908;35.556;2023-04-08T14:57:29;99712.28;;;16.10;39.57
73338;BME280;61575;49.908;35.556;2023-04-08T15:00:31;99712.44;;;16.01;39.14
73338;BME280;61575;49.908;35.556;2023-04-08T15:03:33;99708.22;;;15.92;38.77
73338;BME280;61575;49.908;35.556;2023-04-08T15:06:35;99711.34;;;15.89;39.68
73338;BME280;61575;49.908;35.556;2023-04-08T15:09:39;99708.97;;;15.80;39.09
73338;BME280;61575;49.908;35.556;2023-04-08T15:12:42;99716.22;;;15.72;38.69
73338;BME280;61575;49.908;35.556;2023-04-08T15:15:44;99718.69;;;15.67;39.36
73338;BME280;61575;49.908;35.556;2023-04-08T15:18:46;99715.94;;;15.61;39.82
73338;BME280;61575;49.908;35.556;2023-04-08T15:21:48;99721.88;;;15.50;39.95
73338;BME280;61575;49.908;35.556;2023-04-08T15:24:50;99714.53;;;15.43;40.21
73338;BME280;61575;49.908;35.556;2023-04-08T15:27:52;99725.69;;;15.34;39.92
73338;BME280;61575;49.908;35.556;2023-04-08T15:30:54;99728.72;;;15.24;39.82
73338;BME280;61575;49.908;35.556;2023-04-08T15:33:56;99724.69;;;15.14;40.24
73338;BME280;61575;49.908;35.556;2023-04-08T15:36:59;99726.69;;;15.05;39.91
73338;BME280;61575;49.908;35.556;2023-04-08T15:40:02;99727.66;;;14.97;40.17
73338;BME280;61575;49.908;35.556;2023-04-08T15:43:04;99733.84;;;14.91;40.28
73338;BME280;61575;49.908;35.556;2023-04-08T15:46:06;99733.75;;;14.85;40.78
73338;BME280;61575;49.908;35.556;2023-04-08T15:49:08;99732.84;;;14.77;41.28
73338;BME280;61575;49.908;35.556;2023-04-08T15:52:10;99738.38;;;14.69;41.45
73338;BME280;61575;49.908;35.556;2023-04-08T15:55:12;99742.22;;;14.60;41.68
73338;BME280;61575;49.908;35.556;2023-04-08T15:58:14;99736.09;;;14.52;41.84
73338;BME280;61575;49.908;35.556;2023-04-08T16:01:17;99742.84;;;14.41;42.10
73338;BME280;61575;49.908;35.556;2023-04-08T16:04:20;99747.31;;;14.34;42.51
73338;BME280;61575;49.908;35.556;2023-04-08T16:07:23;99745.56;;;14.26;42.71
73338;BME280;61575;49.908;35.556;2023-04-08T16:10:26;99752.91;;;14.18;43.08
73338;BME280;61575;49.908;35.556;2023-04-08T16:13:28;99759.91;;;14.12;43.06
73338;BME280;61575;49.908;35.556;2023-04-08T16:16:30;99761.88;;;14.03;43.41
73338;BME280;61575;49.908;35.556;2023-04-08T16:19:33;99761.69;;;13.90;43.53